createdAt,value
2019-05-02T00:00:35.218Z,11.99
2019-05-02T00:02:29.121Z,11.99
2019-05-02T00:03:28.546Z,12.00
2019-05-02T00:05:21.913Z,12.07
2019-05-02T00:06:21.865Z,11.95
2019-05-02T00:08:15.216Z,11.99
2019-05-02T00:09:15.186Z,11.95
2019-05-02T00:11:08.553Z,11.88
2019-05-02T00:12:08.506Z,11.86
2019-05-02T00:14:01.850Z,11.81
2019-05-02T00:15:03.453Z,11.78
2019-05-02T00:16:55.192Z,11.71
2019-05-02T00:17:56.827Z,11.73
2019-05-02T00:19:52.613Z,11.86
2019-05-02T00:20:52.561Z,11.77
2019-05-02T00:22:47.989Z,11.80
2019-05-02T00:23:45.879Z,11.74
2019-05-02T00:25:40.251Z,11.86
2019-05-02T00:26:40.206Z,11.78
2019-05-02T00:28:33.545Z,11.77
2019-05-02T00:29:33.522Z,11.73
2019-05-02T00:31:27.884Z,11.63
2019-05-02T00:32:27.836Z,11.60
2019-05-02T00:34:21.193Z,11.56
2019-05-02T00:35:21.159Z,11.60
2019-05-02T00:37:18.981Z,11.63
2019-05-02T00:38:14.477Z,11.70
2019-05-02T00:40:08.818Z,11.68
2019-05-02T00:41:08.814Z,11.70
2019-05-02T00:43:02.169Z,11.74
2019-05-02T00:44:06.106Z,11.68
2019-05-02T00:45:59.805Z,11.68
2019-05-02T00:46:55.437Z,11.68
2019-05-02T00:47:55.418Z,11.78
2019-05-02T00:48:59.658Z,11.77
2019-05-02T00:49:55.380Z,11.73
2019-05-02T00:50:55.362Z,11.80
2019-05-02T00:51:56.625Z,11.83
2019-05-02T00:52:55.324Z,11.76
2019-05-02T00:53:55.336Z,11.80
2019-05-02T00:54:58.680Z,11.74
2019-05-02T00:55:55.265Z,11.76
2019-05-02T00:56:55.250Z,11.76
2019-05-02T00:57:55.644Z,11.85
2019-05-02T00:58:55.209Z,11.71
2019-05-02T00:59:55.189Z,11.81
2019-05-02T01:00:55.172Z,11.80
2019-05-02T01:01:55.151Z,11.86
2019-05-02T01:02:55.134Z,11.86
2019-05-02T01:03:55.113Z,11.93
2019-05-02T01:04:59.352Z,11.91
2019-05-02T01:05:55.074Z,11.89
2019-05-02T01:06:55.054Z,11.83
2019-05-02T01:07:56.021Z,11.85
2019-05-02T01:08:55.017Z,11.93
2019-05-02T01:09:55.036Z,11.95
2019-05-02T01:10:56.822Z,11.89
2019-05-02T01:11:54.970Z,11.85
2019-05-02T01:12:54.940Z,11.95
2019-05-02T01:13:55.655Z,11.85
2019-05-02T01:14:54.905Z,11.81
2019-05-02T01:15:54.884Z,11.93
2019-05-02T01:16:56.210Z,11.93
2019-05-02T01:17:54.844Z,11.93
2019-05-02T01:18:54.825Z,11.89
2019-05-02T01:19:54.808Z,11.91
2019-05-02T01:20:58.108Z,11.96
2019-05-02T01:21:54.768Z,11.89
2019-05-02T01:22:54.749Z,11.83
2019-05-02T01:23:58.930Z,11.89
2019-05-02T01:24:54.714Z,11.86
2019-05-02T01:25:54.690Z,11.88
2019-05-02T01:26:54.671Z,11.86
2019-05-02T01:27:54.652Z,11.91
2019-05-02T01:28:55.759Z,11.93
2019-05-02T01:29:54.614Z,11.97
2019-05-02T01:30:54.594Z,11.86
2019-05-02T01:31:54.961Z,11.96
2019-05-02T01:32:54.557Z,11.89
2019-05-02T01:33:54.538Z,11.91
2019-05-02T01:34:56.331Z,11.89
2019-05-02T01:35:54.498Z,11.86
2019-05-02T01:36:54.479Z,11.85
2019-05-02T01:37:54.972Z,11.83
2019-05-02T01:38:54.441Z,11.93
2019-05-02T01:39:54.422Z,11.89
2019-05-02T01:40:54.778Z,11.88
2019-05-02T01:41:54.386Z,11.89
2019-05-02T01:42:54.369Z,11.89
2019-05-02T01:43:54.970Z,11.93
2019-05-02T01:44:54.326Z,11.81
2019-05-02T01:45:54.308Z,11.81
2019-05-02T01:46:58.834Z,11.78
2019-05-02T01:47:54.269Z,11.89
2019-05-02T01:48:54.251Z,11.85
2019-05-02T01:49:57.339Z,11.80
2019-05-02T01:50:54.213Z,11.73
2019-05-02T01:51:54.193Z,11.74
2019-05-02T01:52:58.607Z,11.83
2019-05-02T01:53:54.154Z,11.81
2019-05-02T01:54:54.135Z,11.80
2019-05-02T01:55:57.753Z,11.67
2019-05-02T01:56:54.098Z,11.63
2019-05-02T01:57:54.077Z,11.70
2019-05-02T01:58:57.753Z,11.73
2019-05-02T01:59:54.041Z,11.80
2019-05-02T02:00:54.024Z,11.78
2019-05-02T02:01:57.946Z,11.76
2019-05-02T02:02:53.987Z,11.73
2019-05-02T02:03:53.960Z,11.74
2019-05-02T02:04:56.917Z,11.80
2019-05-02T02:05:53.924Z,11.78
2019-05-02T02:06:53.907Z,11.78
2019-05-02T02:07:55.479Z,11.77
2019-05-02T02:08:53.866Z,11.78
2019-05-02T02:09:53.847Z,11.77
2019-05-02T02:10:56.498Z,11.73
2019-05-02T02:11:53.808Z,11.78
2019-05-02T02:13:03.229Z,11.81
2019-05-02T02:13:53.769Z,11.77
2019-05-02T02:14:55.456Z,11.71
2019-05-02T02:15:53.732Z,11.78
2019-05-02T02:16:53.711Z,11.77
2019-05-02T02:17:53.694Z,11.73
2019-05-02T02:18:53.671Z,11.70
2019-05-02T02:19:53.658Z,11.73
2019-05-02T02:20:53.634Z,11.77
2019-05-02T02:21:57.582Z,11.81
2019-05-02T02:22:53.601Z,11.81
2019-05-02T02:23:53.591Z,11.83
2019-05-02T02:24:55.965Z,11.85
2019-05-02T02:25:53.540Z,11.73
2019-05-02T02:26:53.519Z,11.80
2019-05-02T02:27:54.950Z,11.78
2019-05-02T02:28:53.482Z,11.77
2019-05-02T02:29:53.469Z,11.73
2019-05-02T02:30:57.715Z,11.73
2019-05-02T02:31:53.425Z,11.76
2019-05-02T02:32:53.447Z,11.78
2019-05-02T02:33:53.390Z,11.77
2019-05-02T02:34:53.372Z,11.81
2019-05-02T02:35:53.345Z,11.76
2019-05-02T02:36:53.327Z,11.74
2019-05-02T02:37:55.687Z,11.77
2019-05-02T02:38:53.295Z,11.81
2019-05-02T02:39:54.170Z,11.77
2019-05-02T02:40:53.253Z,11.78
2019-05-02T02:41:54.199Z,11.83
2019-05-02T02:42:53.211Z,11.81
2019-05-02T02:43:54.606Z,11.85
2019-05-02T02:44:53.172Z,11.81
2019-05-02T02:45:57.695Z,11.86
2019-05-02T02:46:53.133Z,11.81
2019-05-02T02:47:59.923Z,11.81
2019-05-02T02:48:53.102Z,11.77
2019-05-02T02:49:55.835Z,11.78
2019-05-02T02:50:53.056Z,11.80
2019-05-02T02:51:58.011Z,11.81
2019-05-02T02:52:53.017Z,11.74
2019-05-02T02:54:02.822Z,11.74
2019-05-02T02:54:52.981Z,11.71
2019-05-02T02:56:01.176Z,11.80
2019-05-02T02:56:52.941Z,11.77
2019-05-02T02:57:58.511Z,11.73
2019-05-02T02:58:52.901Z,11.67
2019-05-02T02:59:52.884Z,11.56
2019-05-02T03:00:52.865Z,11.56
2019-05-02T03:01:52.848Z,11.59
2019-05-02T03:02:52.839Z,11.56
2019-05-02T03:03:52.806Z,11.56
2019-05-02T03:04:52.788Z,11.55
2019-05-02T03:05:58.486Z,11.55
2019-05-02T03:06:52.747Z,11.62
2019-05-02T03:07:52.727Z,11.70
2019-05-02T03:08:52.710Z,11.65
2019-05-02T03:09:52.691Z,11.68
2019-05-02T03:10:52.668Z,11.71
2019-05-02T03:11:56.155Z,11.71
2019-05-02T03:12:52.630Z,11.80
2019-05-02T03:13:54.186Z,11.74
2019-05-02T03:14:52.595Z,11.71
2019-05-02T03:15:52.570Z,11.74
2019-05-02T03:16:52.554Z,11.76
2019-05-02T03:17:52.535Z,11.76
2019-05-02T03:18:52.516Z,11.60
2019-05-02T03:19:54.499Z,11.60
2019-05-02T03:20:52.476Z,11.53
2019-05-02T03:21:54.590Z,11.59
2019-05-02T03:22:52.453Z,11.58
2019-05-02T03:24:01.361Z,11.56
2019-05-02T03:24:52.398Z,11.63
2019-05-02T03:25:52.379Z,11.52
2019-05-02T03:26:55.410Z,11.49
2019-05-02T03:27:52.340Z,11.45
2019-05-02T03:28:58.234Z,11.56
2019-05-02T03:29:52.302Z,11.48
2019-05-02T03:30:52.287Z,11.35
2019-05-02T03:32:12.245Z,11.44
2019-05-02T03:33:04.678Z,11.49
2019-05-02T03:33:56.363Z,11.43
2019-05-02T03:34:53.855Z,11.53
2019-05-02T03:35:52.183Z,11.43
2019-05-02T03:36:52.169Z,11.53
2019-05-02T03:37:53.135Z,11.52
2019-05-02T03:38:52.127Z,11.56
2019-05-02T03:39:57.405Z,11.48
2019-05-02T03:40:52.088Z,11.59
2019-05-02T03:41:55.745Z,11.59
2019-05-02T03:42:52.046Z,11.62
2019-05-02T03:44:09.469Z,11.58
2019-05-02T03:44:56.439Z,11.58
2019-05-02T03:45:51.990Z,11.60
2019-05-02T03:46:54.504Z,11.59
2019-05-02T03:47:51.954Z,11.59
2019-05-02T03:48:51.944Z,11.58
2019-05-02T03:49:52.485Z,11.56
2019-05-02T03:50:51.890Z,11.63
2019-05-02T03:51:55.867Z,11.59
2019-05-02T03:52:51.856Z,11.73
2019-05-02T03:53:51.866Z,11.70
2019-05-02T03:54:52.568Z,11.71
2019-05-02T03:55:51.803Z,11.78
2019-05-02T03:56:53.458Z,11.70
2019-05-02T03:57:51.752Z,11.78
2019-05-02T03:58:55.958Z,11.85
2019-05-02T03:59:51.727Z,11.77
2019-05-02T04:01:00.872Z,11.77
2019-05-02T04:01:51.684Z,11.76
2019-05-02T04:02:59.264Z,11.77
2019-05-02T04:03:51.660Z,11.77
2019-05-02T04:04:54.148Z,11.77
2019-05-02T04:05:51.680Z,11.73
2019-05-02T04:06:54.875Z,11.51
2019-05-02T04:07:51.562Z,11.53
2019-05-02T04:08:59.241Z,11.49
2019-05-02T04:09:51.524Z,11.48
2019-05-02T04:10:52.693Z,11.53
2019-05-02T04:11:51.484Z,11.55
2019-05-02T04:12:53.270Z,11.56
2019-05-02T04:13:51.473Z,11.60
2019-05-02T04:14:55.609Z,11.65
2019-05-02T04:15:51.427Z,11.49
2019-05-02T04:16:55.097Z,11.55
2019-05-02T04:17:51.381Z,11.55
2019-05-02T04:18:55.672Z,11.56
2019-05-02T04:19:51.327Z,11.56
2019-05-02T04:20:52.003Z,11.62
2019-05-02T04:21:54.770Z,11.68
2019-05-02T04:22:51.263Z,11.60
2019-05-02T04:23:51.249Z,11.62
2019-05-02T04:24:54.590Z,11.62
2019-05-02T04:25:51.206Z,11.58
2019-05-02T04:26:53.624Z,11.58
2019-05-02T04:27:51.167Z,11.63
2019-05-02T04:28:52.149Z,11.60
2019-05-02T04:29:51.129Z,11.56
2019-05-02T04:30:53.673Z,11.59
2019-05-02T04:31:51.089Z,11.58
2019-05-02T04:32:55.723Z,11.56
2019-05-02T04:33:51.047Z,11.48
2019-05-02T04:34:55.630Z,11.58
2019-05-02T04:35:51.009Z,11.58
2019-05-02T04:36:59.851Z,11.48
2019-05-02T04:37:51.045Z,11.55
2019-05-02T04:38:52.522Z,11.52
2019-05-02T04:39:53.808Z,11.58
2019-05-02T04:40:50.912Z,11.56
2019-05-02T04:41:50.891Z,11.59
2019-05-02T04:43:01.040Z,11.58
2019-05-02T04:43:57.306Z,11.53
2019-05-02T04:45:11.841Z,11.56
2019-05-02T04:45:56.153Z,11.60
2019-05-02T04:46:50.791Z,11.55
2019-05-02T04:47:58.590Z,11.55
2019-05-02T04:48:53.020Z,11.56
2019-05-02T04:49:51.974Z,11.56
2019-05-02T04:50:51.773Z,11.49
2019-05-02T04:51:59.983Z,11.52
2019-05-02T04:52:53.744Z,11.49
2019-05-02T04:53:50.651Z,11.40
2019-05-02T04:54:50.634Z,11.43
2019-05-02T04:56:01.840Z,11.43
2019-05-02T04:56:55.113Z,11.40
2019-05-02T04:57:50.922Z,11.27
2019-05-02T04:58:50.561Z,11.37
2019-05-02T04:59:56.573Z,11.34
2019-05-02T05:00:58.002Z,11.41
2019-05-02T05:01:56.990Z,11.44
2019-05-02T05:02:53.083Z,11.44
2019-05-02T05:03:58.230Z,11.31
2019-05-02T05:04:50.437Z,11.35
2019-05-02T05:05:50.419Z,11.31
2019-05-02T05:06:55.920Z,11.31
2019-05-02T05:07:50.391Z,11.38
2019-05-02T05:08:50.387Z,11.43
2019-05-02T05:10:00.878Z,11.48
2019-05-02T05:10:50.318Z,11.48
2019-05-02T05:11:53.912Z,11.37
2019-05-02T05:12:50.278Z,11.48
2019-05-02T05:13:52.515Z,11.52
2019-05-02T05:14:50.240Z,11.43
2019-05-02T05:15:52.010Z,11.48
2019-05-02T05:16:53.846Z,11.52
2019-05-02T05:17:50.189Z,11.62
2019-05-02T05:18:53.118Z,11.63
2019-05-02T05:19:50.148Z,11.67
2019-05-02T05:20:52.961Z,11.68
2019-05-02T05:21:50.098Z,11.73
2019-05-02T05:22:50.084Z,11.65
2019-05-02T05:23:51.735Z,11.71
2019-05-02T05:24:50.040Z,11.70
2019-05-02T05:25:50.631Z,11.71
2019-05-02T05:26:50.001Z,11.70
2019-05-02T05:27:52.533Z,11.65
2019-05-02T05:28:49.971Z,11.70
2019-05-02T05:29:53.714Z,11.76
2019-05-02T05:30:52.182Z,11.70
2019-05-02T05:31:49.906Z,11.70
2019-05-02T05:32:49.883Z,11.70
2019-05-02T05:33:49.864Z,11.68
2019-05-02T05:34:49.847Z,11.65
2019-05-02T05:35:52.552Z,11.71
2019-05-02T05:36:49.805Z,11.80
2019-05-02T05:37:53.069Z,11.78
2019-05-02T05:38:49.764Z,11.73
2019-05-02T05:39:52.587Z,11.52
2019-05-02T05:40:50.313Z,11.60
2019-05-02T05:41:52.243Z,11.58
2019-05-02T05:42:49.686Z,11.56
2019-05-02T05:43:53.518Z,11.56
2019-05-02T05:44:49.647Z,11.63
2019-05-02T05:45:56.062Z,11.65
2019-05-02T05:46:49.623Z,11.59
2019-05-02T05:47:52.316Z,11.52
2019-05-02T05:48:49.571Z,11.55
2019-05-02T05:49:52.383Z,11.45
2019-05-02T05:50:49.531Z,11.52
2019-05-02T05:51:54.241Z,11.56
2019-05-02T05:52:51.883Z,11.55
2019-05-02T05:53:52.273Z,11.37
2019-05-02T05:54:49.447Z,11.49
2019-05-02T05:55:53.664Z,11.48
2019-05-02T05:56:49.409Z,11.51
2019-05-02T05:57:49.988Z,11.49
2019-05-02T05:58:52.537Z,11.55
2019-05-02T05:59:49.352Z,11.52
2019-05-02T06:00:53.823Z,11.58
2019-05-02T06:01:51.583Z,11.53
2019-05-02T06:02:53.729Z,11.56
2019-05-02T06:03:49.275Z,11.37
2019-05-02T06:04:50.271Z,11.41
2019-05-02T06:05:49.234Z,11.45
2019-05-02T06:06:49.212Z,11.43
2019-05-02T06:07:49.197Z,11.41
2019-05-02T06:08:53.895Z,11.49
2019-05-02T06:09:49.156Z,11.38
2019-05-02T06:10:49.137Z,11.34
2019-05-02T06:11:50.782Z,11.33
2019-05-02T06:12:49.104Z,11.40
2019-05-02T06:13:50.732Z,11.48
2019-05-02T06:14:49.054Z,11.37
2019-05-02T06:16:01.546Z,11.33
2019-05-02T06:16:51.783Z,11.37
2019-05-02T06:17:48.999Z,11.41
2019-05-02T06:18:48.980Z,11.35
2019-05-02T06:19:53.560Z,11.34
2019-05-02T06:20:48.936Z,11.43
2019-05-02T06:21:48.914Z,11.45
2019-05-02T06:22:48.895Z,11.49
2019-05-02T06:23:48.880Z,11.51
2019-05-02T06:24:50.986Z,11.58
2019-05-02T06:25:48.834Z,11.58
2019-05-02T06:26:49.814Z,11.63
2019-05-02T06:27:48.797Z,11.55
2019-05-02T06:28:48.776Z,11.59
2019-05-02T06:29:51.186Z,11.56
2019-05-02T06:30:48.734Z,11.45
2019-05-02T06:31:48.716Z,11.55
2019-05-02T06:32:49.984Z,11.59
2019-05-02T06:33:48.676Z,11.58
2019-05-02T06:34:48.659Z,11.60
2019-05-02T06:35:51.760Z,11.67
2019-05-02T06:36:48.621Z,11.60
2019-05-02T06:37:49.929Z,11.48
2019-05-02T06:38:52.303Z,11.45
2019-05-02T06:39:48.562Z,11.53
2019-05-02T06:40:48.539Z,11.52
2019-05-02T06:41:52.173Z,11.53
2019-05-02T06:42:48.497Z,11.53
2019-05-02T06:43:48.477Z,11.49
2019-05-02T06:44:48.467Z,11.52
2019-05-02T06:45:48.441Z,11.48
2019-05-02T06:46:48.417Z,11.44
2019-05-02T06:47:48.399Z,11.35
2019-05-02T06:48:52.384Z,11.23
2019-05-02T06:49:48.362Z,11.13
2019-05-02T06:50:48.345Z,11.16
2019-05-02T06:51:50.999Z,11.20
2019-05-02T06:52:48.300Z,11.19
2019-05-02T06:53:48.957Z,11.15
2019-05-02T06:54:48.262Z,11.13
2019-05-02T06:55:48.239Z,11.13
2019-05-02T06:56:49.209Z,11.23
2019-05-02T06:57:48.200Z,11.22
2019-05-02T06:58:48.184Z,11.27
2019-05-02T06:59:50.070Z,11.30
2019-05-02T07:00:57.287Z,11.35
2019-05-02T07:01:52.283Z,11.48
2019-05-02T07:02:48.104Z,11.40
2019-05-02T07:03:48.081Z,11.43
2019-05-02T07:04:48.062Z,11.34
2019-05-02T07:05:49.113Z,11.38
2019-05-02T07:06:58.283Z,11.43
2019-05-02T07:07:48.019Z,11.45
2019-05-02T07:08:47.986Z,11.45
2019-05-02T07:09:48.163Z,11.48
2019-05-02T07:10:47.942Z,11.49
2019-05-02T07:11:56.992Z,11.55
2019-05-02T07:12:51.096Z,11.52
2019-05-02T07:13:47.883Z,11.37
2019-05-02T07:14:47.861Z,11.40
2019-05-02T07:15:48.629Z,11.40
2019-05-02T07:16:49.699Z,11.58
2019-05-02T07:17:47.801Z,11.51
2019-05-02T07:18:49.583Z,11.48
2019-05-02T07:19:47.762Z,11.56
2019-05-02T07:20:47.745Z,11.55
2019-05-02T07:21:47.726Z,11.65
2019-05-02T07:22:47.701Z,11.70
2019-05-02T07:23:48.647Z,11.76
2019-05-02T07:24:47.662Z,11.77
2019-05-02T07:25:47.645Z,11.81
2019-05-02T07:26:47.628Z,11.97
2019-05-02T07:27:47.604Z,12.00
2019-05-02T07:28:47.604Z,12.14
2019-05-02T07:29:47.576Z,12.10
2019-05-02T07:30:47.545Z,12.07
2019-05-02T07:31:48.835Z,12.00
2019-05-02T07:32:47.506Z,11.96
2019-05-02T07:33:47.484Z,11.99
2019-05-02T07:34:48.264Z,11.91
2019-05-02T07:35:47.444Z,11.89
2019-05-02T07:36:47.430Z,11.95
2019-05-02T07:37:48.769Z,11.91
2019-05-02T07:38:47.388Z,11.91
2019-05-02T07:39:47.375Z,11.86
2019-05-02T07:40:48.089Z,11.86
2019-05-02T07:41:47.325Z,11.91
2019-05-02T07:42:47.307Z,11.80
2019-05-02T07:43:47.290Z,11.96
2019-05-02T07:44:47.271Z,12.02
2019-05-02T07:45:47.252Z,11.97
2019-05-02T07:46:51.912Z,11.88
2019-05-02T07:47:47.215Z,11.95
2019-05-02T07:48:49.057Z,11.89
2019-05-02T07:49:47.171Z,11.99
2019-05-02T07:50:48.167Z,11.96
2019-05-02T07:51:47.134Z,11.95
2019-05-02T07:52:47.118Z,11.81
2019-05-02T07:53:48.479Z,11.81
2019-05-02T07:54:47.072Z,11.89
2019-05-02T07:55:49.169Z,11.97
2019-05-02T07:56:48.704Z,11.93
2019-05-02T07:57:47.013Z,12.05
2019-05-02T07:58:48.121Z,11.99
2019-05-02T07:59:49.693Z,12.07
2019-05-02T08:00:46.963Z,12.14
2019-05-02T08:01:49.714Z,12.17
2019-05-02T08:02:46.915Z,12.14
2019-05-02T08:03:46.900Z,12.17
2019-05-02T08:04:46.882Z,12.11
2019-05-02T08:05:46.873Z,11.99
2019-05-02T08:06:46.870Z,12.11
2019-05-02T08:07:46.848Z,12.12
2019-05-02T08:08:46.808Z,12.02
2019-05-02T08:09:46.780Z,12.02
2019-05-02T08:10:46.760Z,12.07
2019-05-02T08:11:46.785Z,12.17
2019-05-02T08:12:46.722Z,12.21
2019-05-02T08:13:49.626Z,12.18
2019-05-02T08:14:46.683Z,12.25
2019-05-02T08:15:50.916Z,12.28
2019-05-02T08:16:46.644Z,12.39
2019-05-02T08:17:53.204Z,12.44
2019-05-02T08:18:46.604Z,12.37
2019-05-02T08:19:46.583Z,12.39
2019-05-02T08:20:46.565Z,12.39
2019-05-02T08:21:46.547Z,12.48
2019-05-02T08:22:49.029Z,12.57
2019-05-02T08:23:46.514Z,12.58
2019-05-02T08:24:46.509Z,12.58
2019-05-02T08:25:46.585Z,12.48
2019-05-02T08:26:46.450Z,12.54
2019-05-02T08:27:46.429Z,12.57
2019-05-02T08:28:47.072Z,12.65
2019-05-02T08:29:46.402Z,12.66
2019-05-02T08:30:46.368Z,12.76
2019-05-02T08:31:46.349Z,12.80
2019-05-02T08:32:46.331Z,12.87
2019-05-02T08:33:46.312Z,13.03
2019-05-02T08:34:51.313Z,13.03
2019-05-02T08:35:46.272Z,12.91
2019-05-02T08:36:46.256Z,12.91
2019-05-02T08:37:46.234Z,12.93
2019-05-02T08:38:48.941Z,12.88
2019-05-02T08:39:46.196Z,12.75
2019-05-02T08:40:47.866Z,12.84
2019-05-02T08:41:46.160Z,12.73
2019-05-02T08:42:46.138Z,12.88
2019-05-02T08:43:46.255Z,12.86
2019-05-02T08:44:51.357Z,13.01
2019-05-02T08:45:46.086Z,13.06
2019-05-02T08:46:51.077Z,13.08
2019-05-02T08:47:46.040Z,13.03
2019-05-02T08:48:46.020Z,13.13
2019-05-02T08:49:49.389Z,13.21
2019-05-02T08:50:45.982Z,13.27
2019-05-02T08:51:45.965Z,13.31
2019-05-02T08:52:48.034Z,13.19
2019-05-02T08:53:45.924Z,13.03
2019-05-02T08:54:45.908Z,13.05
2019-05-02T08:55:46.747Z,13.01
2019-05-02T08:56:45.892Z,12.87
2019-05-02T08:57:45.848Z,12.95
2019-05-02T08:58:49.955Z,13.08
2019-05-02T08:59:45.816Z,13.01
2019-05-02T09:00:47.450Z,13.06
2019-05-02T09:01:49.329Z,13.20
2019-05-02T09:02:45.756Z,13.28
2019-05-02T09:03:55.537Z,13.31
2019-05-02T09:04:57.334Z,13.43
2019-05-02T09:05:46.284Z,13.45
2019-05-02T09:06:46.097Z,13.43
2019-05-02T09:07:45.664Z,13.47
2019-05-02T09:08:46.169Z,13.33
2019-05-02T09:09:45.622Z,13.36
2019-05-02T09:10:45.604Z,13.30
2019-05-02T09:12:01.071Z,13.30
2019-05-02T09:12:45.653Z,13.39
2019-05-02T09:13:46.101Z,13.40
2019-05-02T09:14:45.526Z,13.31
2019-05-02T09:15:50.977Z,13.50
2019-05-02T09:16:45.490Z,13.57
2019-05-02T09:17:52.725Z,13.60
2019-05-02T09:18:51.002Z,13.61
2019-05-02T09:19:59.169Z,13.71
2019-05-02T09:20:47.102Z,13.71
2019-05-02T09:21:45.395Z,13.76
2019-05-02T09:22:46.537Z,13.75
2019-05-02T09:23:45.357Z,13.79
2019-05-02T09:24:45.350Z,13.73
2019-05-02T09:25:45.326Z,13.64
2019-05-02T09:26:45.300Z,13.60
2019-05-02T09:27:45.282Z,13.61
2019-05-02T09:28:45.275Z,13.64
2019-05-02T09:29:45.972Z,13.65
2019-05-02T09:30:46.819Z,13.70
2019-05-02T09:31:46.172Z,13.62
2019-05-02T09:32:45.204Z,13.75
2019-05-02T09:33:46.834Z,13.85
2019-05-02T09:34:45.149Z,14.01
2019-05-02T09:35:45.131Z,14.11
2019-05-02T09:36:45.117Z,14.07
2019-05-02T09:37:45.094Z,14.05
2019-05-02T09:38:48.687Z,13.95
2019-05-02T09:39:45.057Z,14.03
2019-05-02T09:40:47.267Z,14.25
2019-05-02T09:41:45.033Z,14.23
2019-05-02T09:42:47.481Z,14.31
2019-05-02T09:43:44.989Z,14.44
2019-05-02T09:44:48.067Z,14.51
2019-05-02T09:45:44.945Z,14.51
2019-05-02T09:46:47.391Z,14.40
2019-05-02T09:47:56.708Z,14.41
2019-05-02T09:48:44.890Z,14.48
2019-05-02T09:49:49.004Z,14.43
2019-05-02T09:50:44.851Z,14.36
2019-05-02T09:51:45.653Z,14.51
2019-05-02T09:52:44.815Z,14.56
2019-05-02T09:53:44.801Z,14.67
2019-05-02T09:54:46.176Z,14.78
2019-05-02T09:55:50.365Z,14.67
2019-05-02T09:56:44.742Z,14.77
2019-05-02T09:57:44.723Z,14.87
2019-05-02T09:58:44.704Z,14.94
2019-05-02T09:59:50.345Z,14.97
2019-05-02T10:00:44.671Z,14.90
2019-05-02T10:01:44.649Z,15.08
2019-05-02T10:02:44.638Z,14.93
2019-05-02T10:03:44.616Z,14.96
2019-05-02T10:04:44.596Z,15.04
2019-05-02T10:05:44.586Z,15.18
2019-05-02T10:06:44.563Z,15.15
2019-05-02T10:07:44.540Z,15.12
2019-05-02T10:08:46.562Z,15.18
2019-05-02T10:09:44.529Z,15.30
2019-05-02T10:10:45.966Z,15.32
2019-05-02T10:11:44.469Z,15.45
2019-05-02T10:12:44.462Z,15.36
2019-05-02T10:13:44.448Z,15.50
2019-05-02T10:14:44.414Z,15.45
2019-05-02T10:15:44.406Z,15.48
2019-05-02T10:16:44.383Z,15.39
2019-05-02T10:17:46.746Z,15.45
2019-05-02T10:18:44.352Z,15.39
2019-05-02T10:19:49.572Z,15.45
2019-05-02T10:20:44.312Z,15.45
2019-05-02T10:21:46.874Z,15.43
2019-05-02T10:22:44.271Z,15.48
2019-05-02T10:23:44.254Z,15.50
2019-05-02T10:24:44.236Z,15.43
2019-05-02T10:25:46.748Z,15.52
2019-05-02T10:26:44.202Z,15.54
2019-05-02T10:27:47.480Z,15.65
2019-05-02T10:28:49.375Z,15.73
2019-05-02T10:29:44.145Z,15.60
2019-05-02T10:30:47.374Z,15.78
2019-05-02T10:31:44.112Z,15.76
2019-05-02T10:32:47.213Z,15.88
2019-05-02T10:33:44.084Z,16.03
2019-05-02T10:34:47.682Z,15.99
2019-05-02T10:35:44.078Z,16.08
2019-05-02T10:36:45.461Z,16.03
2019-05-02T10:37:44.004Z,16.12
2019-05-02T10:38:43.988Z,16.24
2019-05-02T10:39:43.969Z,16.32
2019-05-02T10:40:48.261Z,16.18
2019-05-02T10:41:43.939Z,16.31
2019-05-02T10:42:43.920Z,16.24
2019-05-02T10:43:46.972Z,16.36
2019-05-02T10:44:43.884Z,16.26
2019-05-02T10:45:47.467Z,16.29
2019-05-02T10:46:43.846Z,16.28
2019-05-02T10:47:43.830Z,16.41
2019-05-02T10:48:43.815Z,16.55
2019-05-02T10:49:43.797Z,16.64
2019-05-02T10:50:43.780Z,16.73
2019-05-02T10:51:49.192Z,16.73
2019-05-02T10:52:43.743Z,16.80
2019-05-02T10:53:47.131Z,16.77
2019-05-02T10:54:43.715Z,16.84
2019-05-02T10:55:43.694Z,17.01
2019-05-02T10:56:43.675Z,17.07
2019-05-02T10:57:43.656Z,17.24
2019-05-02T10:58:43.640Z,17.05
2019-05-02T10:59:43.631Z,17.23
2019-05-02T11:00:45.485Z,17.16
2019-05-02T11:01:43.589Z,17.31
2019-05-02T11:02:43.572Z,17.42
2019-05-02T11:03:47.338Z,17.46
2019-05-02T11:04:43.546Z,17.52
2019-05-02T11:05:43.519Z,17.63
2019-05-02T11:06:46.340Z,17.82
2019-05-02T11:07:43.487Z,17.86
2019-05-02T11:08:46.016Z,17.78
2019-05-02T11:09:43.455Z,17.86
2019-05-02T11:10:43.436Z,17.90
2019-05-02T11:11:43.419Z,18.00
2019-05-02T11:12:46.855Z,18.16
2019-05-02T11:13:43.387Z,18.21
2019-05-02T11:14:43.370Z,18.28
2019-05-02T11:15:43.354Z,18.39
2019-05-02T11:16:43.336Z,18.16
2019-05-02T11:17:43.320Z,18.33
2019-05-02T11:18:45.221Z,18.48
2019-05-02T11:19:43.287Z,18.71
2019-05-02T11:20:43.272Z,19.11
2019-05-02T11:21:55.540Z,19.27
2019-05-02T11:22:43.239Z,19.60
2019-05-02T11:23:43.238Z,19.34
2019-05-02T11:24:43.203Z,19.22
2019-05-02T11:25:43.185Z,19.67
2019-05-02T11:26:43.172Z,19.71
2019-05-02T11:27:43.154Z,19.53
2019-05-02T11:28:43.138Z,19.87
2019-05-02T11:29:43.121Z,20.03
2019-05-02T11:30:43.105Z,20.24
2019-05-02T11:31:43.090Z,20.42
2019-05-02T11:32:43.074Z,20.10
2019-05-02T11:33:43.057Z,20.95
2019-05-02T11:34:43.045Z,20.58
2019-05-02T11:35:49.021Z,20.63
2019-05-02T11:36:43.014Z,20.74
2019-05-02T11:37:42.997Z,20.89
2019-05-02T11:38:45.497Z,21.26
2019-05-02T11:39:49.451Z,21.60
2019-05-02T11:40:42.962Z,21.43
2019-05-02T11:41:42.946Z,21.29
2019-05-02T11:42:42.926Z,21.59
2019-05-02T11:43:44.958Z,21.91
2019-05-02T11:44:42.900Z,21.56
2019-05-02T11:45:42.883Z,21.97
2019-05-02T11:46:46.778Z,21.99
2019-05-02T11:47:42.859Z,21.33
2019-05-02T11:48:54.719Z,20.78
2019-05-02T11:49:46.796Z,20.32
2019-05-02T11:50:42.818Z,20.68
2019-05-02T11:51:47.171Z,20.90
2019-05-02T11:52:42.790Z,20.12
2019-05-02T11:53:42.777Z,19.94
2019-05-02T11:54:44.692Z,19.66
2019-05-02T11:55:43.852Z,20.34
2019-05-02T11:56:49.056Z,20.63
2019-05-02T11:57:42.813Z,21.29
2019-05-02T11:58:48.227Z,21.63
2019-05-02T11:59:42.697Z,21.91
2019-05-02T12:00:45.513Z,21.94
2019-05-02T12:01:42.716Z,22.55
2019-05-02T12:02:42.658Z,23.47
2019-05-02T12:03:42.644Z,23.64
2019-05-02T12:04:42.633Z,22.38
2019-05-02T12:05:42.651Z,22.41
2019-05-02T12:06:42.608Z,22.44
2019-05-02T12:07:42.592Z,22.36
2019-05-02T12:08:44.897Z,22.46
2019-05-02T12:09:44.075Z,22.14
2019-05-02T12:10:42.555Z,21.88
2019-05-02T12:11:42.544Z,22.78
2019-05-02T12:12:42.986Z,23.74
2019-05-02T12:13:42.820Z,23.71
2019-05-02T12:14:42.507Z,23.94
2019-05-02T12:15:44.260Z,24.06
2019-05-02T12:16:43.128Z,24.29
2019-05-02T12:17:42.467Z,23.74
2019-05-02T12:18:42.508Z,22.80
2019-05-02T12:19:42.692Z,22.03
2019-05-02T12:20:42.824Z,21.29
2019-05-02T12:21:42.422Z,20.77
2019-05-02T12:22:42.443Z,20.34
2019-05-02T12:23:42.401Z,20.19
2019-05-02T12:24:45.365Z,20.21
2019-05-02T12:25:42.489Z,20.03
2019-05-02T12:26:42.389Z,20.10
2019-05-02T12:27:42.595Z,19.93
2019-05-02T12:28:42.881Z,19.85
2019-05-02T12:29:42.454Z,19.60
2019-05-02T12:30:42.310Z,20.44
2019-05-02T12:31:42.743Z,21.50
2019-05-02T12:32:42.838Z,22.12
2019-05-02T12:33:42.717Z,22.77
2019-05-02T12:34:42.262Z,23.37
2019-05-02T12:35:43.197Z,23.89
2019-05-02T12:36:42.767Z,24.29
2019-05-02T12:37:42.533Z,24.28
2019-05-02T12:38:42.234Z,23.76
2019-05-02T12:39:42.594Z,23.81
2019-05-02T12:40:42.407Z,23.62
2019-05-02T12:41:42.615Z,23.91
2019-05-02T12:42:42.194Z,24.32
2019-05-02T12:43:42.212Z,24.82
2019-05-02T12:44:42.707Z,24.50
2019-05-02T12:45:42.345Z,24.75
2019-05-02T12:46:42.294Z,23.49
2019-05-02T12:47:42.819Z,23.11
2019-05-02T12:48:42.293Z,22.73
2019-05-02T12:49:42.475Z,22.26
2019-05-02T12:50:42.068Z,22.47
2019-05-02T12:51:42.901Z,22.47
2019-05-02T12:52:42.872Z,22.73
2019-05-02T12:53:42.034Z,22.47
2019-05-02T12:54:42.028Z,22.23
2019-05-02T12:55:42.293Z,22.03
2019-05-02T12:56:42.009Z,21.74
2019-05-02T12:57:42.924Z,21.66
2019-05-02T12:58:42.193Z,21.30
2019-05-02T12:59:41.963Z,21.15
2019-05-02T13:00:43.022Z,21.15
2019-05-02T13:01:42.217Z,20.90
2019-05-02T13:02:41.933Z,21.13
2019-05-02T13:03:43.667Z,20.90
2019-05-02T13:04:41.962Z,20.70
2019-05-02T13:05:42.645Z,20.46
2019-05-02T13:06:42.260Z,20.22